嘉手納 の空港の天気 - METARとTAF

嘉手納基地 ( RODN / DNA ) - 沖縄県沖縄市
飛行場実況気象(Metar)
観測時間11/19 14:56 JST (11/19 05:56 UTC)
風向・風速北 8m/s 瞬間風速11m/s
視程10km以上
天気現象弱い雨
全天を覆う雲 雲底高度 880m
気温19.7℃
湿度78%
気圧1017.9hPa
METARRODN 190556Z AUTO 01016G21KT 10SM -RA OVC029 20/16 A3004 RMK AO2 DZB29E30RAB30 SLP179 P0000 60000 T01970157 10222 20197 55006 $
過去の天気等 Google飛行場航空写真 Wunderground天気予報

過去48時間のMETAR

飛行場予報(TAF)
発表時間: 11/19 09:00 JST (11/19 00:00 UTC)
予報対象時間: 19日9時 JST ~ 20日15時 JST
風向・風速北北東 8m/s 瞬間風速 10m/s
視程10km以上
天気現象周辺でしゅう雨
少しの雲 雲底高度 300m
全天の8割程度の雲 雲底高度 760m
全天を覆う雲 雲底高度 910m
19日18時 JST ~ 19日24時 JST に一時的に
視程8000m
天気現象弱いしゅう雨
TAF RODN 190000Z 1900/2006 02015G20KT 9999 VCSH FEW010 BKN025 OVC030 QNH3001INS WND 05015G20KT AFT 1905
TEMPO 1909/1915 8000 -SHRA TX23/1905Z TN19/1923Z
日本の空港のMETAR・TAFへのリンク

RJTT 東京国際空港
RJAA 新東京国際空港
RJBB 関西国際空港
RJOO 大阪空港
RJGG 中部国際空港
RJCC 新千歳空港
RJFF 福岡空港
ROAH 那覇空港


RJEC 旭川空港
RJCH 函館空港
RJCK 釧路空港
RJCM 女満別空港
RJCB 帯広空港
RJSA 青森空港
RJSS 仙台空港
RJSK 秋田空港
RJSF 福島空港
RJAH 茨城空港
RJSN 新潟空港
RJNT 富山空港
RJNK 小松飛行場
RJNS 静岡空港
RJOH 美保飛行場
RJOC 出雲空港
RJOB 岡山空港
RJOA 広島空港
RJOI 岩国飛行場
RJOT 高松空港
RJOM 松山空港
RJOK 高知空港
RJFR 北九州空港
RJFT 熊本空港
RJFU 長崎空港
RJFS 佐賀空港
RJFO 大分空港
RJFM 宮崎空港
RJFK 鹿児島空港
ROIG 石垣島空港
RJTY 横田飛行場
ROTM 普天間飛行場
RODN 嘉手納飛行場